createdAt,value
2019-03-18T00:01:58.516Z,76.74
2019-03-18T00:04:29.727Z,76.30
2019-03-18T00:07:00.967Z,75.95
2019-03-18T00:09:32.042Z,77.60
2019-03-18T00:12:03.270Z,76.09
2019-03-18T00:14:34.468Z,75.41
2019-03-18T00:17:05.733Z,76.35
2019-03-18T00:19:36.947Z,76.15
2019-03-18T00:22:08.194Z,76.75
2019-03-18T00:24:39.324Z,75.61
2019-03-18T00:27:10.450Z,78.06
2019-03-18T00:29:42.800Z,76.28
2019-03-18T00:32:14.227Z,75.53
2019-03-18T00:34:45.299Z,76.07
2019-03-18T00:37:16.701Z,75.31
2019-03-18T00:39:47.925Z,75.20
2019-03-18T00:42:19.037Z,75.86
2019-03-18T00:44:50.266Z,75.46
2019-03-18T00:47:21.631Z,75.28
2019-03-18T00:49:52.861Z,74.82
2019-03-18T00:52:24.399Z,74.58
2019-03-18T00:54:55.915Z,74.64
2019-03-18T00:57:27.160Z,75.97
2019-03-18T00:59:58.248Z,74.78
2019-03-18T01:02:29.511Z,75.15
2019-03-18T01:05:00.663Z,75.37
2019-03-18T01:07:31.853Z,74.88
2019-03-18T01:10:03.263Z,73.96
2019-03-18T01:12:34.469Z,74.29
2019-03-18T01:15:06.238Z,74.64
2019-03-18T01:17:37.525Z,76.16
2019-03-18T01:20:08.834Z,73.90
2019-03-18T01:22:40.173Z,73.69
2019-03-18T01:25:12.471Z,74.58
2019-03-18T01:27:44.085Z,74.96
2019-03-18T01:30:15.599Z,74.17
2019-03-18T01:32:46.782Z,73.50
2019-03-18T01:35:18.117Z,72.85
2019-03-18T01:37:49.243Z,74.16
2019-03-18T01:40:20.569Z,73.62
2019-03-18T01:42:51.764Z,74.48
2019-03-18T01:45:22.931Z,74.53
2019-03-18T01:47:54.314Z,74.64
2019-03-18T01:50:25.536Z,74.68
2019-03-18T01:52:56.765Z,73.40
2019-03-18T01:55:27.977Z,74.84
2019-03-18T01:57:59.157Z,74.16
2019-03-18T02:00:30.413Z,74.66
2019-03-18T02:03:01.633Z,74.80
2019-03-18T02:05:32.964Z,73.64
2019-03-18T02:08:04.263Z,73.61
2019-03-18T02:10:35.512Z,75.48
2019-03-18T02:13:06.818Z,74.79
2019-03-18T02:15:38.057Z,74.44
2019-03-18T02:18:09.258Z,73.75
2019-03-18T02:20:40.407Z,73.67
2019-03-18T02:23:11.651Z,73.98
2019-03-18T02:25:42.900Z,74.37
2019-03-18T02:28:14.412Z,73.58
2019-03-18T02:30:45.703Z,73.58
2019-03-18T02:33:16.889Z,73.20
2019-03-18T02:35:48.070Z,74.08
2019-03-18T02:38:19.254Z,74.20
2019-03-18T02:40:50.407Z,74.01
2019-03-18T02:43:21.756Z,73.90
2019-03-18T02:46:08.970Z,73.58
2019-03-18T02:48:28.679Z,73.53
2019-03-18T02:50:59.850Z,73.85
2019-03-18T02:53:30.958Z,73.90
2019-03-18T02:56:02.125Z,74.49
2019-03-18T02:58:33.386Z,74.87
2019-03-18T03:01:05.039Z,75.11
2019-03-18T03:03:37.153Z,74.78
2019-03-18T03:06:09.617Z,74.34
2019-03-18T03:08:40.872Z,76.33
2019-03-18T03:11:12.160Z,74.09
2019-03-18T03:13:43.594Z,75.14
2019-03-18T03:16:26.449Z,75.37
2019-03-18T03:18:47.523Z,73.85
2019-03-18T03:21:18.683Z,74.01
2019-03-18T03:23:49.763Z,75.07
2019-03-18T03:26:20.983Z,75.41
2019-03-18T03:28:52.186Z,75.27
2019-03-18T03:31:23.355Z,76.61
2019-03-18T03:33:54.988Z,76.34
2019-03-18T03:36:26.228Z,74.74
2019-03-18T03:38:57.467Z,73.78
2019-03-18T03:41:28.740Z,75.01
2019-03-18T03:43:59.931Z,74.49
2019-03-18T03:46:43.171Z,75.71
2019-03-18T03:49:04.252Z,75.54
2019-03-18T03:51:35.552Z,74.73
2019-03-18T03:54:06.755Z,74.95
2019-03-18T03:56:38.267Z,74.81
2019-03-18T03:59:09.606Z,74.69
2019-03-18T04:01:41.771Z,75.59
2019-03-18T04:04:13.231Z,74.63
2019-03-18T04:06:44.542Z,77.20
2019-03-18T04:09:15.675Z,75.91
2019-03-18T04:11:46.889Z,74.82
2019-03-18T04:14:18.073Z,75.27
2019-03-18T04:17:00.851Z,75.08
2019-03-18T04:19:22.316Z,73.15
2019-03-18T04:21:53.456Z,74.27
2019-03-18T04:24:24.622Z,73.61
2019-03-18T04:26:55.843Z,73.91
2019-03-18T04:29:26.939Z,74.22
2019-03-18T04:31:58.053Z,73.66
2019-03-18T04:34:29.201Z,72.83
2019-03-18T04:37:00.396Z,73.74
2019-03-18T04:39:31.559Z,73.35
2019-03-18T04:42:02.792Z,73.49
2019-03-18T04:44:33.861Z,74.25
2019-03-18T04:47:14.220Z,73.43
2019-03-18T04:49:37.984Z,73.51
2019-03-18T04:52:09.131Z,74.84
2019-03-18T04:54:40.322Z,74.09
2019-03-18T04:57:11.453Z,73.05
2019-03-18T04:59:42.733Z,73.98
2019-03-18T05:02:16.609Z,74.62
2019-03-18T05:04:47.928Z,73.93
2019-03-18T05:07:19.172Z,73.89
2019-03-18T05:09:50.786Z,73.52
2019-03-18T05:12:23.386Z,73.17
2019-03-18T05:14:55.089Z,72.02
2019-03-18T05:17:27.098Z,72.57
2019-03-18T05:20:01.097Z,73.75
2019-03-18T05:22:32.958Z,73.19
2019-03-18T05:25:04.380Z,72.72
2019-03-18T05:27:35.565Z,73.09
2019-03-18T05:30:07.638Z,75.48
2019-03-18T05:32:38.868Z,74.12
2019-03-18T05:35:10.112Z,76.34
2019-03-18T05:37:41.609Z,75.67
2019-03-18T05:40:13.128Z,73.92
2019-03-18T05:42:44.302Z,73.96
2019-03-18T05:45:15.514Z,74.95
2019-03-18T05:47:46.619Z,74.54
2019-03-18T05:50:18.195Z,74.71
2019-03-18T05:52:49.392Z,76.46
2019-03-18T05:55:20.769Z,74.07
2019-03-18T05:57:51.899Z,74.28
2019-03-18T06:00:23.177Z,74.53
2019-03-18T06:02:54.428Z,74.23
2019-03-18T06:05:25.684Z,73.67
2019-03-18T06:07:56.932Z,74.01
2019-03-18T06:10:28.101Z,74.06
2019-03-18T06:12:59.205Z,76.02
2019-03-18T06:15:30.439Z,74.45
2019-03-18T06:18:01.691Z,74.09
2019-03-18T06:20:39.743Z,74.10
2019-03-18T06:23:10.912Z,75.59
2019-03-18T06:25:43.175Z,73.80
2019-03-18T06:28:14.461Z,73.25
2019-03-18T06:30:45.629Z,74.57
2019-03-18T06:33:16.795Z,73.76
2019-03-18T06:35:48.006Z,73.11
2019-03-18T06:38:19.250Z,73.91
2019-03-18T06:40:50.745Z,73.25
2019-03-18T06:43:21.910Z,73.06
2019-03-18T06:45:53.026Z,73.52
2019-03-18T06:48:24.199Z,73.87
2019-03-18T06:50:55.484Z,73.36
2019-03-18T06:53:26.733Z,72.85
2019-03-18T06:55:58.139Z,73.47
2019-03-18T06:58:29.353Z,73.56
2019-03-18T07:01:00.656Z,73.84
2019-03-18T07:03:31.814Z,73.13
2019-03-18T07:06:02.982Z,71.83
2019-03-18T07:08:35.235Z,72.49
2019-03-18T07:11:06.390Z,72.68
2019-03-18T07:13:37.537Z,72.19
2019-03-18T07:16:08.763Z,72.80
2019-03-18T07:18:39.938Z,71.55
2019-03-18T07:21:11.165Z,72.10
2019-03-18T07:23:42.320Z,73.03
2019-03-18T07:26:13.534Z,71.32
2019-03-18T07:28:44.705Z,72.99
2019-03-18T07:31:16.039Z,73.05
2019-03-18T07:33:47.152Z,71.54
2019-03-18T07:36:18.444Z,70.37
2019-03-18T07:38:49.660Z,70.81
2019-03-18T07:41:20.847Z,70.70
2019-03-18T07:43:52.027Z,70.69
2019-03-18T07:46:23.300Z,72.06
2019-03-18T07:48:54.520Z,69.96
2019-03-18T07:51:25.763Z,69.58
2019-03-18T07:53:58.015Z,70.29
2019-03-18T07:56:29.193Z,69.61
2019-03-18T07:59:00.319Z,69.82
2019-03-18T08:01:31.427Z,70.47
2019-03-18T08:04:02.590Z,70.40
2019-03-18T08:06:33.747Z,70.99
2019-03-18T08:09:07.802Z,71.71
2019-03-18T08:11:39.332Z,71.54
2019-03-18T08:14:10.480Z,73.09
2019-03-18T08:16:41.840Z,72.66
2019-03-18T08:19:12.905Z,72.46
2019-03-18T08:21:44.001Z,75.77
2019-03-18T08:24:15.126Z,73.47
2019-03-18T08:26:46.393Z,73.77
2019-03-18T08:29:17.435Z,73.58
2019-03-18T08:31:48.621Z,75.11
2019-03-18T08:34:19.935Z,73.79
2019-03-18T08:36:51.018Z,74.44
2019-03-18T08:39:22.192Z,73.60
2019-03-18T08:41:53.383Z,72.12
2019-03-18T08:44:24.536Z,72.89
2019-03-18T08:46:55.699Z,73.70
2019-03-18T08:49:26.835Z,73.26
2019-03-18T08:51:57.950Z,72.83
2019-03-18T08:54:29.349Z,71.32
2019-03-18T08:57:00.761Z,72.87
2019-03-18T08:59:32.088Z,71.41
2019-03-18T09:02:03.210Z,71.45
2019-03-18T09:04:34.375Z,71.50
2019-03-18T09:07:05.627Z,72.62
2019-03-18T09:09:36.770Z,71.13
2019-03-18T09:12:08.004Z,72.41
2019-03-18T09:14:39.083Z,73.20
2019-03-18T09:17:10.565Z,73.44
2019-03-18T09:19:42.713Z,71.52
2019-03-18T09:22:13.900Z,71.71
2019-03-18T09:24:45.164Z,71.61
2019-03-18T09:27:16.359Z,71.95
2019-03-18T09:29:47.659Z,72.63
2019-03-18T09:32:19.022Z,71.74
2019-03-18T09:34:50.219Z,73.23
2019-03-18T09:37:21.538Z,70.64
2019-03-18T09:39:52.816Z,71.30
2019-03-18T09:42:24.560Z,70.85
2019-03-18T09:44:55.705Z,72.67
2019-03-18T09:47:26.921Z,71.32
2019-03-18T09:49:57.999Z,71.08
2019-03-18T09:52:29.103Z,71.50
2019-03-18T09:55:00.381Z,69.82
2019-03-18T09:57:31.613Z,69.35
2019-03-18T10:00:02.906Z,66.12
2019-03-18T10:02:34.152Z,66.20
2019-03-18T10:05:05.927Z,64.23
2019-03-18T10:15:26.861Z,62.44
2019-03-18T10:17:57.847Z,60.41
2019-03-18T10:20:28.866Z,61.29
2019-03-18T10:23:02.808Z,61.39
2019-03-18T10:25:33.811Z,61.84
2019-03-18T10:28:04.866Z,59.55
2019-03-18T10:30:35.928Z,60.27
2019-03-18T10:33:06.941Z,60.37
2019-03-18T10:35:38.023Z,62.36
2019-03-18T10:38:09.044Z,62.44
2019-03-18T10:40:40.054Z,62.70
2019-03-18T10:43:11.043Z,61.33
2019-03-18T10:45:42.034Z,60.07
2019-03-18T10:48:13.013Z,60.58
2019-03-18T10:50:44.014Z,58.97
2019-03-18T10:53:15.030Z,60.40
2019-03-18T10:55:45.993Z,58.37
2019-03-18T10:58:18.218Z,55.64
2019-03-18T11:00:49.592Z,53.67
2019-03-18T11:03:20.686Z,50.83
2019-03-18T11:05:51.836Z,52.81
2019-03-18T11:08:22.913Z,51.34
2019-03-18T11:10:54.076Z,50.40
2019-03-18T11:13:25.048Z,50.27
2019-03-18T11:15:56.033Z,51.51
2019-03-18T11:18:27.034Z,55.80
2019-03-18T11:20:58.017Z,56.39
2019-03-18T11:23:28.995Z,56.22
2019-03-18T11:25:59.983Z,57.21
2019-03-18T11:28:30.976Z,56.98
2019-03-18T11:31:02.053Z,57.26
2019-03-18T11:33:33.179Z,56.78
